createdAt,value
2022-11-02T00:01:13.608Z,23.08
2022-11-02T00:03:40.237Z,26.90
2022-11-02T00:06:06.890Z,21.08
2022-11-02T00:08:33.558Z,20.38
2022-11-02T00:11:00.140Z,23.98
2022-11-02T00:13:26.939Z,19.98
2022-11-02T00:15:53.749Z,19.88
2022-11-02T00:18:20.451Z,19.98
2022-11-02T00:20:47.344Z,19.77
2022-11-02T00:23:15.518Z,19.33
2022-11-02T00:25:45.666Z,20.38
2022-11-02T00:28:13.463Z,22.85
2022-11-02T00:30:40.551Z,26.80
2022-11-02T00:33:07.354Z,21.60
2022-11-02T00:35:35.266Z,21.83
2022-11-02T00:38:02.618Z,23.77
2022-11-02T00:40:29.490Z,20.88
2022-11-02T00:42:56.144Z,21.33
2022-11-02T00:45:23.436Z,19.50
2022-11-02T00:47:50.721Z,19.80
2022-11-02T00:50:18.948Z,26.00
2022-11-02T00:52:45.862Z,20.98
2022-11-02T00:55:14.993Z,21.83
2022-11-02T00:57:44.110Z,20.73
2022-11-02T01:00:12.059Z,23.05
2022-11-02T01:02:39.209Z,22.00
2022-11-02T01:05:07.510Z,25.35
2022-11-02T01:07:34.323Z,21.30
2022-11-02T01:10:00.904Z,22.05
2022-11-02T01:15:11.822Z,21.38
2022-11-02T01:17:38.764Z,19.98
2022-11-02T01:20:07.636Z,21.17
2022-11-02T01:22:34.469Z,20.15
2022-11-02T01:25:01.140Z,19.23
2022-11-02T01:27:27.954Z,18.77
2022-11-02T01:29:54.631Z,21.67
2022-11-02T01:32:21.325Z,20.98
2022-11-02T01:34:48.273Z,19.58
2022-11-02T01:37:15.524Z,23.27
2022-11-02T01:39:42.194Z,19.38
2022-11-02T01:42:24.636Z,19.83
2022-11-02T01:44:51.553Z,19.65
2022-11-02T01:47:21.319Z,22.85
2022-11-02T01:49:51.901Z,20.35
2022-11-02T01:52:37.915Z,21.27
2022-11-02T01:55:11.520Z,20.40
2022-11-02T01:57:41.148Z,19.98
2022-11-02T02:00:13.640Z,22.40
2022-11-02T02:02:50.375Z,18.77
2022-11-02T02:05:19.309Z,24.30
2022-11-02T02:07:47.486Z,22.20
2022-11-02T02:10:14.988Z,22.45
2022-11-02T02:12:43.186Z,19.77
2022-11-02T02:15:12.373Z,21.55
2022-11-02T02:18:07.240Z,26.33
2022-11-02T02:20:55.140Z,20.88
2022-11-02T02:24:00.663Z,20.75
2022-11-02T02:26:51.895Z,18.50
2022-11-02T02:29:41.899Z,23.15
2022-11-02T02:32:14.972Z,20.17
2022-11-02T02:34:50.667Z,22.85
2022-11-02T02:37:23.957Z,19.83
2022-11-02T02:40:04.731Z,19.38
2022-11-02T02:43:00.381Z,19.55
2022-11-02T02:45:34.741Z,20.90
2022-11-02T02:48:11.911Z,19.48
2022-11-02T02:51:07.643Z,21.35
2022-11-02T02:53:43.264Z,21.05
2022-11-02T02:56:11.440Z,22.20
2022-11-02T02:58:51.453Z,25.20
2022-11-02T03:01:18.785Z,21.38
2022-11-02T03:03:46.178Z,20.13
2022-11-02T03:06:18.116Z,19.13
2022-11-02T03:09:14.561Z,20.42
2022-11-02T03:12:17.164Z,19.13
2022-11-02T03:15:20.910Z,18.83
2022-11-02T03:17:51.286Z,25.65
2022-11-02T03:20:39.857Z,20.13
2022-11-02T03:23:23.068Z,18.55
2022-11-02T03:25:56.673Z,27.08
2022-11-02T03:28:48.056Z,20.98
2022-11-02T03:31:47.698Z,21.80
2022-11-02T03:34:39.218Z,19.50
2022-11-02T03:37:20.155Z,24.52
2022-11-02T03:39:58.963Z,20.45
2022-11-02T03:42:27.872Z,21.00
2022-11-02T03:45:01.193Z,25.10
2022-11-02T03:47:33.023Z,18.75
2022-11-02T03:50:06.393Z,20.17
2022-11-02T03:52:36.769Z,20.15
2022-11-02T03:55:06.298Z,18.55
2022-11-02T03:57:45.498Z,21.05
2022-11-02T04:00:20.230Z,21.65
2022-11-02T04:02:59.232Z,21.10
2022-11-02T04:05:32.821Z,20.25
2022-11-02T04:08:22.161Z,19.70
2022-11-02T04:11:11.755Z,20.98
2022-11-02T04:13:58.538Z,19.80
2022-11-02T04:16:28.276Z,25.80
2022-11-02T04:19:14.817Z,17.83
2022-11-02T04:22:02.875Z,19.48
2022-11-02T04:24:50.207Z,18.45
2022-11-02T04:27:20.940Z,20.67
2022-11-02T04:29:49.294Z,23.38
2022-11-02T04:32:36.520Z,21.85
2022-11-02T04:35:05.763Z,20.90
2022-11-02T04:38:00.172Z,27.40
2022-11-02T04:40:29.463Z,18.67
2022-11-02T04:42:57.179Z,21.35
2022-11-02T04:45:24.077Z,18.58
2022-11-02T04:47:51.901Z,22.00
2022-11-02T04:50:18.978Z,17.23
2022-11-02T04:52:46.184Z,16.25
2022-11-02T04:55:12.936Z,16.42
2022-11-02T04:57:45.344Z,15.98
2022-11-02T05:00:13.478Z,17.45
2022-11-02T05:02:40.716Z,19.52
2022-11-02T05:05:07.932Z,19.02
2022-11-02T05:07:35.016Z,17.38
2022-11-02T05:10:02.563Z,17.23
2022-11-02T05:12:30.660Z,19.20
2022-11-02T05:15:00.604Z,23.58
2022-11-02T05:17:27.755Z,18.70
2022-11-02T05:19:55.844Z,20.70
2022-11-02T05:22:22.609Z,20.67
2022-11-02T05:24:49.772Z,21.38
2022-11-02T05:27:16.648Z,18.85
2022-11-02T05:29:45.211Z,20.45
2022-11-02T05:32:11.930Z,24.42
2022-11-02T05:34:39.360Z,20.80
2022-11-02T05:37:07.739Z,21.13
2022-11-02T05:39:34.473Z,20.88
2022-11-02T05:42:01.673Z,22.10
2022-11-02T05:44:28.335Z,20.23
2022-11-02T05:46:55.108Z,20.92
2022-11-02T05:49:21.732Z,20.98
2022-11-02T05:51:49.105Z,21.00
2022-11-02T05:54:15.805Z,20.52
2022-11-02T05:56:42.452Z,20.80
2022-11-02T05:59:09.119Z,22.63
2022-11-02T06:01:35.753Z,21.05
2022-11-02T06:04:02.458Z,19.58
2022-11-02T06:06:29.062Z,21.73
2022-11-02T06:08:55.672Z,21.40
2022-11-02T06:11:22.352Z,20.27
2022-11-02T06:13:50.686Z,19.98
2022-11-02T06:16:22.582Z,21.38
2022-11-02T06:18:50.788Z,21.77
2022-11-02T06:21:17.787Z,21.40
2022-11-02T06:23:47.642Z,20.35
2022-11-02T06:26:14.852Z,21.10
2022-11-02T06:28:41.742Z,19.38
2022-11-02T06:31:09.640Z,21.20
2022-11-02T06:33:36.294Z,20.27
2022-11-02T06:36:03.013Z,21.23
2022-11-02T06:38:30.002Z,22.02
2022-11-02T06:40:58.709Z,21.55
2022-11-02T06:43:26.296Z,20.30
2022-11-02T06:45:57.400Z,22.02
2022-11-02T06:48:27.635Z,23.38
2022-11-02T06:50:58.239Z,23.90
2022-11-02T06:53:26.178Z,23.42
2022-11-02T06:55:54.185Z,22.50
2022-11-02T06:58:22.849Z,23.05
2022-11-02T07:00:49.681Z,21.80
2022-11-02T07:03:16.769Z,23.05
2022-11-02T07:05:49.478Z,22.63
2022-11-02T07:08:16.118Z,21.08
2022-11-02T07:10:42.727Z,21.80
2022-11-02T07:13:09.457Z,20.05
2022-11-02T07:15:36.232Z,22.98
2022-11-02T07:18:03.017Z,29.92
2022-11-02T07:20:32.537Z,22.50
2022-11-02T07:23:01.630Z,23.98
2022-11-02T07:25:31.002Z,24.30
2022-11-02T07:28:01.213Z,22.88
2022-11-02T07:30:29.774Z,23.63
2022-11-02T07:32:56.505Z,23.02
2022-11-02T07:35:23.199Z,22.25
2022-11-02T07:38:01.329Z,23.85
2022-11-02T07:40:29.532Z,22.42
2022-11-02T07:42:57.257Z,24.90
2022-11-02T07:45:49.897Z,23.70
2022-11-02T07:48:16.508Z,23.35
2022-11-02T07:50:43.109Z,23.95
2022-11-02T07:53:10.030Z,22.25
2022-11-02T07:55:36.629Z,24.10
2022-11-02T07:58:07.802Z,22.83
2022-11-02T08:00:38.003Z,25.75
2022-11-02T08:03:07.165Z,22.05
2022-11-02T08:05:35.830Z,22.80
2022-11-02T08:08:17.041Z,21.85
2022-11-02T08:10:45.152Z,23.00
2022-11-02T08:13:18.006Z,24.35
2022-11-02T08:15:45.160Z,24.75
2022-11-02T08:18:14.784Z,23.20
2022-11-02T08:20:41.471Z,23.00
2022-11-02T08:23:10.703Z,22.27
2022-11-02T08:25:38.126Z,23.30
2022-11-02T08:28:06.085Z,23.90
2022-11-02T08:30:33.615Z,22.67
2022-11-02T08:33:16.561Z,24.02
2022-11-02T08:35:44.752Z,22.35
2022-11-02T08:38:12.124Z,23.45
2022-11-02T08:40:39.071Z,23.40
2022-11-02T08:43:10.950Z,22.77
2022-11-02T08:46:13.307Z,22.55
2022-11-02T08:48:27.699Z,23.00
2022-11-02T08:50:55.596Z,22.15
2022-11-02T08:53:22.299Z,23.05
2022-11-02T08:55:49.029Z,22.23
2022-11-02T08:58:15.618Z,23.23
2022-11-02T09:00:42.606Z,23.15
2022-11-02T09:03:12.336Z,22.15
2022-11-02T09:05:42.234Z,22.23
2022-11-02T09:08:17.308Z,23.02
2022-11-02T09:10:44.682Z,23.50
2022-11-02T09:13:13.301Z,22.73
2022-11-02T09:15:40.985Z,22.42
2022-11-02T09:18:08.804Z,22.50
2022-11-02T09:20:36.013Z,22.77
2022-11-02T09:23:02.892Z,21.80
2022-11-02T09:25:29.464Z,23.23
2022-11-02T09:27:57.501Z,22.25
2022-11-02T09:30:25.904Z,22.33
2022-11-02T09:32:57.478Z,21.63
2022-11-02T09:35:25.138Z,28.05
2022-11-02T09:37:51.746Z,21.92
2022-11-02T09:40:39.525Z,21.83
2022-11-02T09:43:06.422Z,21.98
2022-11-02T09:46:13.498Z,21.90
2022-11-02T09:48:45.189Z,22.80
2022-11-02T09:51:24.545Z,22.98
2022-11-02T09:54:00.833Z,23.08
2022-11-02T09:56:29.646Z,21.30
2022-11-02T09:59:01.283Z,23.30
2022-11-02T10:01:37.318Z,23.08
2022-11-02T10:04:06.877Z,23.40
2022-11-02T10:06:36.553Z,23.08
2022-11-02T10:09:14.245Z,23.38
2022-11-02T10:11:54.027Z,23.20
2022-11-02T10:14:26.284Z,22.67
2022-11-02T10:17:12.317Z,22.48
2022-11-02T10:19:41.778Z,23.35
2022-11-02T10:22:13.003Z,22.85
2022-11-02T10:24:46.331Z,22.95
2022-11-02T10:27:15.520Z,22.42
2022-11-02T10:30:03.868Z,26.73
2022-11-02T10:32:36.306Z,24.38
2022-11-02T10:38:24.933Z,23.25
2022-11-02T10:41:23.457Z,24.85
2022-11-02T10:43:52.870Z,23.95
2022-11-02T10:46:31.911Z,23.55
2022-11-02T10:49:29.582Z,23.77
2022-11-02T10:51:56.249Z,23.40
2022-11-02T10:54:29.307Z,23.60
2022-11-02T10:57:00.297Z,23.02
2022-11-02T10:59:26.950Z,23.98
2022-11-02T11:01:56.618Z,22.17
2022-11-02T11:04:28.581Z,23.92
2022-11-02T11:06:56.798Z,23.75
2022-11-02T11:09:27.001Z,24.00
2022-11-02T11:12:00.650Z,23.05
2022-11-02T11:20:35.292Z,23.90
2022-11-02T11:28:24.960Z,22.27
2022-11-02T11:31:08.369Z,23.35
2022-11-02T11:33:55.519Z,23.25
2022-11-02T11:36:34.817Z,24.42
2022-11-02T11:39:07.761Z,23.17
2022-11-02T11:41:39.456Z,23.55
2022-11-02T11:44:12.569Z,23.58
2022-11-02T11:46:48.324Z,24.00
2022-11-02T11:49:47.992Z,23.70
2022-11-02T11:52:20.071Z,23.35
2022-11-02T11:54:57.828Z,23.05
2022-11-02T11:57:34.412Z,22.77
2022-11-02T12:00:04.890Z,24.50
2022-11-02T12:02:38.014Z,22.35
2022-11-02T12:05:07.841Z,21.90
2022-11-02T12:07:56.140Z,21.50
2022-11-02T12:11:00.242Z,26.00
2022-11-02T12:13:54.272Z,21.83
2022-11-02T12:16:42.867Z,22.30
2022-11-02T12:19:37.169Z,23.38
2022-11-02T12:22:38.055Z,23.10
2022-11-02T12:25:20.421Z,24.50
2022-11-02T12:27:53.676Z,22.42
2022-11-02T12:30:21.166Z,24.70
2022-11-02T12:33:24.189Z,24.70
2022-11-02T12:36:11.683Z,24.00
2022-11-02T12:38:49.731Z,24.20
2022-11-02T12:41:41.564Z,24.15
2022-11-02T12:44:14.072Z,24.35
2022-11-02T12:46:49.174Z,23.42
2022-11-02T12:49:41.906Z,24.83
2022-11-02T12:52:32.424Z,23.52
2022-11-02T12:55:02.810Z,24.40
2022-11-02T12:57:34.725Z,24.23
2022-11-02T13:00:06.870Z,24.15
2022-11-02T13:02:44.511Z,24.15
2022-11-02T13:05:23.271Z,25.08
2022-11-02T13:08:09.132Z,24.48
2022-11-02T13:10:57.261Z,23.90
2022-11-02T13:13:54.795Z,23.48
2022-11-02T13:16:33.922Z,24.00
2022-11-02T13:19:02.660Z,22.52
2022-11-02T13:21:41.160Z,24.45
2022-11-02T13:24:16.822Z,23.77
2022-11-02T13:26:45.243Z,23.33
2022-11-02T13:29:33.019Z,23.80
2022-11-02T13:32:21.529Z,22.20
2022-11-02T13:34:52.414Z,23.10
2022-11-02T13:37:30.657Z,22.45
2022-11-02T13:40:00.868Z,23.70
2022-11-02T13:42:40.347Z,23.88
2022-11-02T13:45:28.753Z,23.55
2022-11-02T13:48:00.969Z,23.27
2022-11-02T13:50:31.302Z,23.92
2022-11-02T13:53:03.008Z,24.55
2022-11-02T13:55:46.585Z,25.02
2022-11-02T13:58:31.845Z,24.05
2022-11-02T14:01:04.333Z,25.17
2022-11-02T14:03:48.595Z,23.83
2022-11-02T14:06:17.346Z,25.70
2022-11-02T14:08:49.902Z,23.05
2022-11-02T14:11:16.520Z,23.63
2022-11-02T14:14:06.143Z,25.17
2022-11-02T14:16:50.712Z,24.60
2022-11-02T14:19:43.404Z,23.30
2022-11-02T14:22:15.310Z,25.85
2022-11-02T14:24:41.904Z,30.30
2022-11-02T14:27:18.916Z,27.50
2022-11-02T14:29:45.477Z,25.23
2022-11-02T14:32:21.084Z,24.10
2022-11-02T14:35:13.094Z,24.63
2022-11-02T14:38:10.949Z,24.83
2022-11-02T14:41:03.814Z,25.40
2022-11-02T14:43:51.515Z,25.40
2022-11-02T14:46:33.452Z,26.67
2022-11-02T14:49:01.591Z,26.38
2022-11-02T14:51:33.238Z,24.83
2022-11-02T14:54:14.687Z,24.25
2022-11-02T14:57:04.926Z,23.15
2022-11-02T14:59:44.575Z,24.42
2022-11-02T15:02:38.663Z,24.05
2022-11-02T15:05:19.534Z,23.67
2022-11-02T15:07:54.546Z,24.73
2022-11-02T15:12:48.717Z,24.17
2022-11-02T15:15:36.346Z,24.60
2022-11-02T15:18:30.742Z,24.85
2022-11-02T15:21:17.616Z,25.65
2022-11-02T15:24:11.054Z,24.23
2022-11-02T15:26:46.997Z,25.30
2022-11-02T15:29:36.790Z,23.92
2022-11-02T15:32:06.260Z,23.80
2022-11-02T15:34:41.481Z,23.55
2022-11-02T15:37:12.603Z,24.85
2022-11-02T15:39:39.248Z,40.63
2022-11-02T15:42:20.258Z,49.42
2022-11-02T15:44:54.658Z,118.95
2022-11-02T15:47:42.617Z,57.05
2022-11-02T15:50:36.968Z,30.35
2022-11-02T15:53:28.373Z,30.67
2022-11-02T15:56:20.044Z,25.42
2022-11-02T15:59:11.524Z,24.23
2022-11-02T16:01:40.134Z,22.52
2022-11-02T16:04:08.701Z,26.00
2022-11-02T16:06:39.266Z,23.58
2022-11-02T16:09:35.102Z,27.65
2022-11-02T16:14:40.524Z,29.27
2022-11-02T16:17:22.378Z,26.20
2022-11-02T16:19:49.453Z,30.80
2022-11-02T16:22:26.357Z,32.20
2022-11-02T16:24:54.404Z,29.15
2022-11-02T16:27:22.269Z,29.17
2022-11-02T16:29:50.613Z,30.23
2022-11-02T16:32:17.412Z,35.60
2022-11-02T16:34:44.933Z,31.25
2022-11-02T16:37:14.696Z,31.20
2022-11-02T16:39:46.475Z,32.05
2022-11-02T16:42:21.910Z,45.35
2022-11-02T16:44:58.154Z,43.17
2022-11-02T16:47:40.605Z,33.83
2022-11-02T16:50:20.914Z,32.00
2022-11-02T16:52:55.071Z,29.77
2022-11-02T16:55:37.235Z,28.02
2022-11-02T16:58:06.303Z,30.35
2022-11-02T17:00:34.049Z,29.13
2022-11-02T17:03:08.422Z,32.88
2022-11-02T17:05:35.646Z,29.92
2022-11-02T17:08:11.682Z,50.53
2022-11-02T17:10:39.294Z,63.83
2022-11-02T17:13:15.922Z,47.13
2022-11-02T17:15:51.624Z,57.85
2022-11-02T17:18:21.065Z,38.30
2022-11-02T17:20:48.993Z,29.83
2022-11-02T17:23:34.043Z,29.13
2022-11-02T17:26:24.701Z,39.08
2022-11-02T17:29:26.715Z,29.67
2022-11-02T17:31:57.069Z,38.85
2022-11-02T17:34:23.914Z,28.55
2022-11-02T17:36:51.789Z,24.98
2022-11-02T17:39:20.340Z,24.95
2022-11-02T17:42:11.571Z,25.45
2022-11-02T17:44:38.656Z,27.08
2022-11-02T17:47:12.996Z,26.35
2022-11-02T17:49:39.655Z,58.80
2022-11-02T17:52:06.493Z,46.28
2022-11-02T17:54:33.200Z,31.58
2022-11-02T17:57:01.680Z,28.00
2022-11-02T17:59:28.858Z,32.60
2022-11-02T18:01:55.730Z,30.73
2022-11-02T18:04:22.453Z,58.47
2022-11-02T18:06:49.161Z,39.80
2022-11-02T18:09:18.908Z,34.38
2022-11-02T18:11:46.190Z,34.92
2022-11-02T18:14:16.674Z,33.05
2022-11-02T18:16:44.627Z,38.78
2022-11-02T18:19:11.797Z,32.83
2022-11-02T18:21:38.467Z,36.20
2022-11-02T18:24:05.410Z,51.40
2022-11-02T18:26:32.088Z,44.42
2022-11-02T18:28:58.745Z,38.30
2022-11-02T18:31:25.353Z,29.98
2022-11-02T18:33:52.982Z,36.15
2022-11-02T18:36:19.619Z,46.17
2022-11-02T18:38:46.350Z,36.80
2022-11-02T18:41:29.479Z,61.22
2022-11-02T18:44:05.531Z,27.60
2022-11-02T18:46:33.776Z,27.00
2022-11-02T18:49:00.474Z,30.85
2022-11-02T18:51:27.192Z,29.73
2022-11-02T18:54:02.441Z,25.40
2022-11-02T18:56:30.155Z,28.13
2022-11-02T18:58:57.441Z,25.40
2022-11-02T19:01:25.195Z,29.73
2022-11-02T19:03:57.108Z,32.42
2022-11-02T19:06:43.254Z,33.90
2022-11-02T19:09:18.077Z,39.42
2022-11-02T19:12:05.141Z,30.95
2022-11-02T19:14:36.078Z,28.15
2022-11-02T19:17:03.469Z,29.58
2022-11-02T19:19:30.935Z,29.10
2022-11-02T19:21:57.616Z,38.05
2022-11-02T19:24:24.444Z,41.30
2022-11-02T19:26:51.428Z,28.13
2022-11-02T19:29:18.933Z,30.75
2022-11-02T19:31:46.534Z,23.92
2022-11-02T19:34:13.529Z,21.75
2022-11-02T19:36:40.621Z,24.38
2022-11-02T19:39:09.297Z,26.23
2022-11-02T19:41:38.435Z,41.25
2022-11-02T19:44:06.137Z,71.50
2022-11-02T19:46:33.211Z,33.00
2022-11-02T19:48:59.944Z,25.98
2022-11-02T19:51:28.999Z,26.25
2022-11-02T19:53:58.359Z,27.40
2022-11-02T19:56:27.465Z,29.98
2022-11-02T19:58:55.342Z,28.17
2022-11-02T20:01:24.586Z,28.85
2022-11-02T20:03:52.327Z,28.25
2022-11-02T20:06:27.796Z,29.88
2022-11-02T20:08:56.733Z,41.70
2022-11-02T20:11:25.205Z,34.38
2022-11-02T20:13:52.114Z,30.67
2022-11-02T20:16:20.412Z,23.25
2022-11-02T20:18:48.648Z,23.65
2022-11-02T20:21:26.881Z,28.10
2022-11-02T20:23:57.611Z,29.58
2022-11-02T20:26:27.202Z,22.27
2022-11-02T20:28:54.078Z,22.35
2022-11-02T20:31:26.636Z,25.83
2022-11-02T20:33:53.721Z,28.63
2022-11-02T20:36:20.566Z,29.55
2022-11-02T20:38:48.985Z,31.05
2022-11-02T20:41:18.882Z,30.58
2022-11-02T20:43:47.936Z,24.70
2022-11-02T20:46:36.393Z,20.08
2022-11-02T20:49:13.936Z,23.27
2022-11-02T20:51:52.972Z,26.48
2022-11-02T20:54:22.798Z,21.00
2022-11-02T20:56:50.145Z,21.27
2022-11-02T20:59:17.354Z,27.05
2022-11-02T21:01:44.525Z,20.27
2022-11-02T21:04:16.855Z,17.15
2022-11-02T21:06:47.219Z,21.05
2022-11-02T21:09:14.079Z,17.60
2022-11-02T21:11:59.234Z,19.77
2022-11-02T21:14:25.874Z,18.67
2022-11-02T21:16:52.483Z,19.30
2022-11-02T21:19:19.254Z,18.73
2022-11-02T21:21:46.124Z,20.33
2022-11-02T21:24:12.753Z,56.83
2022-11-02T21:26:39.570Z,48.30
2022-11-02T21:29:06.199Z,37.40
2022-11-02T21:31:32.892Z,28.73
2022-11-02T21:33:59.567Z,22.85
2022-11-02T21:36:26.153Z,32.67
2022-11-02T21:38:52.846Z,19.63
2022-11-02T21:41:21.962Z,18.23
2022-11-02T21:43:51.744Z,24.60
2022-11-02T21:46:19.577Z,17.02
2022-11-02T21:48:46.188Z,15.63
2022-11-02T21:51:15.200Z,23.17
2022-11-02T21:53:43.174Z,30.80
2022-11-02T21:56:15.256Z,22.92
2022-11-02T21:58:45.805Z,44.80
2022-11-02T22:01:39.668Z,39.55
2022-11-02T22:04:07.665Z,22.95
2022-11-02T22:06:34.894Z,32.67
2022-11-02T22:09:02.831Z,25.38
2022-11-02T22:11:29.736Z,25.40
2022-11-02T22:13:58.474Z,29.70
2022-11-02T22:16:31.693Z,33.00
2022-11-02T22:19:00.352Z,23.83
2022-11-02T22:21:30.076Z,21.65
2022-11-02T22:23:56.697Z,33.58
2022-11-02T22:26:25.871Z,17.70
2022-11-02T22:28:53.287Z,21.73
2022-11-02T22:31:23.189Z,30.63
2022-11-02T22:33:51.875Z,27.13
2022-11-02T22:36:24.924Z,19.33
2022-11-02T22:38:55.848Z,18.38
2022-11-02T22:41:27.732Z,27.92
2022-11-02T22:43:57.752Z,21.80
2022-11-02T22:46:26.637Z,24.45
2022-11-02T22:48:55.401Z,20.45
2022-11-02T22:51:24.085Z,18.13
2022-11-02T22:53:50.758Z,17.67
2022-11-02T22:56:20.176Z,29.02
2022-11-02T22:58:48.051Z,25.88
2022-11-02T23:01:23.028Z,29.23
2022-11-02T23:03:50.123Z,25.73
2022-11-02T23:06:18.565Z,18.92
2022-11-02T23:08:46.153Z,18.95
2022-11-02T23:11:21.782Z,24.65
2022-11-02T23:13:54.388Z,19.17
2022-11-02T23:16:26.242Z,20.23
2022-11-02T23:19:29.656Z,25.92
2022-11-02T23:22:30.057Z,18.77
2022-11-02T23:25:17.219Z,20.05
2022-11-02T23:28:15.403Z,23.90
2022-11-02T23:31:18.154Z,17.42
2022-11-02T23:33:44.764Z,21.00
2022-11-02T23:36:12.132Z,18.83
2022-11-02T23:38:58.222Z,19.90
2022-11-02T23:41:25.643Z,19.80
2022-11-02T23:44:11.111Z,20.67
2022-11-02T23:46:39.284Z,19.85
2022-11-02T23:49:05.965Z,19.83
2022-11-02T23:51:51.220Z,21.38
2022-11-02T23:54:36.592Z,22.45
2022-11-02T23:57:03.470Z,21.70
2022-11-02T23:59:30.112Z,21.58
